Terminal Aerodrome Forecast
Issued by NWS

Home | Current Version | Previous Version | Text Only | Print | Product List | Glossary On
Versions: 1 2 3 4 5 6 7 8 9 10 11 12 13 14 15 16 17 18 19 20 21 22 23 24 25 26 27 28 29 30 31 32 33 34 35 36 37 38 39 40 41
000
FTUS44 KLIX 191806 AAA
TAFMCB
TAF AMD
KMCB 191806Z 1918/2018 34005KT P6SM VCSH OVC003
     FM200400 VRB04KT 6SM RA BR OVC003
     FM201200 01009KT 5SM RA BR OVC005
     FM201700 36014KT 4SM -RA BR OVC003=

USA.gov is the U.S. government's official web portal to all federal, state and local government web resources and services.